createdAt,value
2023-04-20T00:01:32.597Z,11.13
2023-04-20T00:03:59.623Z,10.48
2023-04-20T00:06:29.901Z,14.05
2023-04-20T00:08:56.948Z,14.98
2023-04-20T00:11:23.911Z,12.70
2023-04-20T00:13:50.863Z,14.32
2023-04-20T00:16:18.854Z,16.52
2023-04-20T00:18:49.654Z,14.85
2023-04-20T00:21:17.078Z,11.75
2023-04-20T00:23:43.939Z,16.13
2023-04-20T00:26:11.315Z,15.25
2023-04-20T00:28:38.174Z,15.73
2023-04-20T00:31:06.669Z,10.68
2023-04-20T00:33:33.618Z,19.63
2023-04-20T00:36:00.544Z,15.52
2023-04-20T00:38:28.086Z,16.50
2023-04-20T00:40:57.964Z,17.23
2023-04-20T00:43:25.013Z,21.83
2023-04-20T00:45:52.572Z,17.40
2023-04-20T00:48:20.813Z,20.00
2023-04-20T00:50:49.660Z,16.25
2023-04-20T00:53:17.640Z,25.85
2023-04-20T00:55:45.663Z,19.52
2023-04-20T00:58:13.033Z,16.13
2023-04-20T01:00:40.859Z,26.63
2023-04-20T01:03:09.121Z,20.85
2023-04-20T01:05:36.439Z,17.55
2023-04-20T01:08:03.534Z,19.83
2023-04-20T01:10:30.842Z,19.05
2023-04-20T01:12:57.832Z,19.90
2023-04-20T01:15:24.864Z,22.20
2023-04-20T01:17:52.575Z,19.17
2023-04-20T01:20:20.655Z,13.60
2023-04-20T01:22:52.207Z,21.70
2023-04-20T01:25:19.110Z,19.60
2023-04-20T01:27:46.105Z,23.38
2023-04-20T01:30:13.901Z,25.17
2023-04-20T01:32:41.897Z,18.48
2023-04-20T01:35:10.182Z,16.83
2023-04-20T01:37:37.783Z,17.55
2023-04-20T01:40:06.604Z,27.20
2023-04-20T01:42:33.789Z,25.20
2023-04-20T01:45:00.795Z,20.10
2023-04-20T01:47:27.724Z,24.20
2023-04-20T01:49:54.767Z,20.63
2023-04-20T01:52:21.670Z,19.52
2023-04-20T01:54:48.557Z,22.13
2023-04-20T01:57:15.749Z,27.55
2023-04-20T01:59:42.989Z,24.42
2023-04-20T02:02:10.043Z,25.50
2023-04-20T02:04:36.972Z,19.30
2023-04-20T02:07:03.847Z,18.27
2023-04-20T02:09:31.113Z,25.67
2023-04-20T02:11:58.358Z,27.27
2023-04-20T02:14:25.487Z,26.77
2023-04-20T02:16:53.636Z,19.00
2023-04-20T02:19:21.789Z,22.73
2023-04-20T02:21:48.692Z,22.08
2023-04-20T02:24:15.813Z,30.90
2023-04-20T02:26:43.004Z,23.15
2023-04-20T02:29:09.880Z,26.10
2023-04-20T02:31:36.828Z,27.35
2023-04-20T02:34:06.335Z,27.17
2023-04-20T02:36:33.472Z,26.25
2023-04-20T02:39:00.453Z,29.80
2023-04-20T02:41:27.396Z,22.23
2023-04-20T02:43:54.266Z,24.17
2023-04-20T02:46:21.195Z,30.27
2023-04-20T02:48:48.199Z,24.38
2023-04-20T02:51:15.489Z,26.90
2023-04-20T02:53:42.358Z,25.63
2023-04-20T02:56:09.378Z,27.73
2023-04-20T02:58:36.397Z,26.33
2023-04-20T03:01:04.452Z,24.40
2023-04-20T03:03:32.091Z,28.92
2023-04-20T03:05:59.231Z,23.58
2023-04-20T03:08:26.396Z,26.70
2023-04-20T03:10:53.309Z,29.02
2023-04-20T03:13:20.241Z,26.08
2023-04-20T03:15:47.485Z,22.52
2023-04-20T03:18:14.406Z,29.58
2023-04-20T03:20:41.644Z,28.08
2023-04-20T03:23:08.578Z,27.13
2023-04-20T03:25:35.502Z,27.83
2023-04-20T03:28:02.437Z,21.42
2023-04-20T03:30:29.500Z,27.30
2023-04-20T03:32:56.475Z,33.88
2023-04-20T03:35:23.740Z,22.65
2023-04-20T03:37:50.636Z,22.85
2023-04-20T03:40:17.554Z,27.70
2023-04-20T03:42:44.582Z,19.88
2023-04-20T03:45:12.255Z,25.20
2023-04-20T03:47:39.681Z,21.50
2023-04-20T03:50:07.367Z,21.13
2023-04-20T03:52:34.436Z,28.15
2023-04-20T03:55:01.300Z,30.02
2023-04-20T03:57:28.254Z,27.20
2023-04-20T03:59:55.484Z,27.15
2023-04-20T04:02:22.956Z,32.13
2023-04-20T04:04:50.360Z,30.48
2023-04-20T04:07:17.297Z,31.90
2023-04-20T04:09:44.191Z,27.98
2023-04-20T04:12:11.465Z,31.10
2023-04-20T04:14:38.409Z,31.77
2023-04-20T04:17:05.706Z,35.13
2023-04-20T04:19:32.612Z,31.35
2023-04-20T04:21:59.472Z,31.30
2023-04-20T04:24:27.040Z,28.55
2023-04-20T04:26:58.727Z,29.38
2023-04-20T04:29:26.108Z,24.30
2023-04-20T04:31:54.728Z,38.20
2023-04-20T04:34:24.271Z,29.33
2023-04-20T04:36:51.487Z,25.92
2023-04-20T04:39:18.614Z,31.05
2023-04-20T04:41:46.440Z,28.92
2023-04-20T04:44:13.292Z,24.63
2023-04-20T04:46:40.257Z,29.73
2023-04-20T04:49:08.295Z,31.65
2023-04-20T04:51:35.429Z,27.65
2023-04-20T04:54:02.566Z,31.20
2023-04-20T04:56:29.748Z,31.70
2023-04-20T04:58:56.712Z,35.42
2023-04-20T05:01:23.997Z,37.53
2023-04-20T05:03:51.776Z,31.65
2023-04-20T05:06:18.926Z,27.95
2023-04-20T05:08:46.834Z,28.73
2023-04-20T05:11:13.738Z,35.58
2023-04-20T05:13:40.708Z,31.98
2023-04-20T05:16:08.189Z,29.33
2023-04-20T05:18:35.403Z,38.88
2023-04-20T05:21:02.333Z,30.52
2023-04-20T05:23:29.246Z,32.55
2023-04-20T05:25:56.548Z,30.80
2023-04-20T05:28:23.434Z,31.98
2023-04-20T05:30:50.502Z,30.42
2023-04-20T05:33:17.699Z,22.52
2023-04-20T05:35:44.569Z,25.20
2023-04-20T05:38:11.440Z,34.13
2023-04-20T05:40:38.443Z,29.83
2023-04-20T05:43:05.331Z,30.35
2023-04-20T05:45:34.551Z,33.05
2023-04-20T05:48:01.545Z,32.55
2023-04-20T05:50:28.677Z,24.65
2023-04-20T05:52:55.657Z,28.10
2023-04-20T05:55:23.208Z,28.55
2023-04-20T05:57:52.453Z,28.13
2023-04-20T06:00:21.167Z,27.17
2023-04-20T06:02:49.166Z,24.88
2023-04-20T06:05:16.504Z,28.98
2023-04-20T06:07:43.532Z,22.73
2023-04-20T06:10:11.069Z,34.45
2023-04-20T06:12:38.422Z,29.15
2023-04-20T06:15:11.126Z,26.05
2023-04-20T06:17:41.386Z,34.47
2023-04-20T06:20:10.793Z,27.55
2023-04-20T06:22:44.677Z,25.73
2023-04-20T06:25:11.784Z,32.17
2023-04-20T06:27:38.686Z,29.45
2023-04-20T06:30:06.958Z,27.40
2023-04-20T06:32:34.119Z,28.63
2023-04-20T06:35:01.176Z,31.77
2023-04-20T06:37:28.517Z,26.63
2023-04-20T06:39:55.510Z,31.55
2023-04-20T06:42:22.840Z,31.58
2023-04-20T06:44:49.773Z,28.17
2023-04-20T06:47:16.867Z,28.92
2023-04-20T06:49:43.819Z,25.08
2023-04-20T06:52:10.741Z,25.33
2023-04-20T06:54:37.967Z,21.35
2023-04-20T06:57:04.865Z,32.63
2023-04-20T06:59:31.810Z,33.17
2023-04-20T07:01:58.815Z,27.48
2023-04-20T07:04:26.398Z,26.58
2023-04-20T07:06:54.349Z,28.23
2023-04-20T07:09:23.232Z,29.25
2023-04-20T07:11:50.404Z,28.20
2023-04-20T07:14:17.364Z,23.05
2023-04-20T07:16:44.377Z,24.55
2023-04-20T07:19:11.403Z,26.48
2023-04-20T07:21:38.387Z,24.65
2023-04-20T07:24:06.214Z,24.00
2023-04-20T07:26:33.074Z,25.25
2023-04-20T07:28:59.963Z,25.33
2023-04-20T07:31:26.890Z,25.60
2023-04-20T07:33:54.006Z,23.13
2023-04-20T07:36:22.788Z,20.35
2023-04-20T07:38:50.171Z,25.02
2023-04-20T07:41:17.253Z,19.63
2023-04-20T07:43:45.308Z,24.42
2023-04-20T07:46:21.389Z,22.98
2023-04-20T07:48:49.010Z,19.02
2023-04-20T07:51:16.095Z,22.25
2023-04-20T07:53:43.769Z,20.95
2023-04-20T07:56:10.910Z,23.65
2023-04-20T07:58:39.369Z,22.40
2023-04-20T08:01:06.521Z,21.58
2023-04-20T08:03:34.236Z,19.77
2023-04-20T08:06:01.493Z,18.13
2023-04-20T08:08:29.652Z,18.55
2023-04-20T08:10:58.930Z,17.45
2023-04-20T08:13:26.377Z,23.17
2023-04-20T08:15:53.460Z,19.05
2023-04-20T08:18:21.383Z,20.80
2023-04-20T08:20:48.572Z,16.08
2023-04-20T08:23:15.495Z,24.65
2023-04-20T08:25:42.893Z,19.10
2023-04-20T08:28:19.196Z,20.55
2023-04-20T08:30:47.248Z,14.77
2023-04-20T08:33:14.299Z,19.63
2023-04-20T08:35:41.458Z,18.63
2023-04-20T08:38:08.320Z,20.63
2023-04-20T08:40:37.359Z,20.83
2023-04-20T08:43:04.522Z,21.15
2023-04-20T08:45:31.858Z,14.95
2023-04-20T08:48:03.188Z,14.25
2023-04-20T08:50:30.841Z,17.90
2023-04-20T08:52:58.250Z,15.48
2023-04-20T08:55:25.307Z,18.85
2023-04-20T08:57:52.357Z,15.23
2023-04-20T09:00:19.650Z,18.45
2023-04-20T09:02:55.804Z,17.77
2023-04-20T09:05:31.830Z,23.73
2023-04-20T09:08:01.363Z,16.10
2023-04-20T09:10:44.185Z,16.83
2023-04-20T09:13:23.070Z,18.48
2023-04-20T09:15:50.327Z,16.60
2023-04-20T09:18:17.910Z,12.75
2023-04-20T09:20:44.910Z,13.90
2023-04-20T09:23:18.063Z,14.88
2023-04-20T09:25:51.045Z,17.02
2023-04-20T09:28:18.546Z,18.05
2023-04-20T09:30:48.139Z,14.68
2023-04-20T09:33:15.938Z,14.27
2023-04-20T09:35:45.476Z,15.75
2023-04-20T09:38:17.112Z,15.63
2023-04-20T09:40:44.053Z,14.90
2023-04-20T09:43:18.815Z,13.82
2023-04-20T09:45:46.038Z,14.07
2023-04-20T09:48:19.466Z,14.15
2023-04-20T09:50:49.768Z,13.40
2023-04-20T09:53:18.825Z,14.55
2023-04-20T09:55:51.989Z,12.45
2023-04-20T09:58:24.009Z,17.80
2023-04-20T10:00:51.454Z,14.50
2023-04-20T10:03:22.290Z,14.32
2023-04-20T10:05:51.153Z,15.70
2023-04-20T10:08:19.354Z,17.15
2023-04-20T10:10:51.175Z,14.35
2023-04-20T10:13:20.692Z,16.35
2023-04-20T10:15:47.842Z,16.38
2023-04-20T10:18:24.169Z,18.33
2023-04-20T10:20:52.719Z,12.02
2023-04-20T10:23:20.274Z,12.38
2023-04-20T10:25:59.639Z,14.18
2023-04-20T10:28:42.206Z,14.82
2023-04-20T10:31:13.471Z,13.50
2023-04-20T10:33:56.759Z,14.07
2023-04-20T10:36:44.748Z,18.15
2023-04-20T10:39:19.308Z,13.82
2023-04-20T10:42:01.638Z,12.13
2023-04-20T10:44:28.788Z,14.70
2023-04-20T10:46:56.497Z,14.10
2023-04-20T10:49:29.708Z,14.60
2023-04-20T10:51:57.078Z,15.35
2023-04-20T10:54:24.191Z,12.88
2023-04-20T10:56:53.193Z,17.08
2023-04-20T10:59:23.915Z,14.23
2023-04-20T11:01:52.924Z,15.68
2023-04-20T11:04:34.298Z,13.70
2023-04-20T11:07:10.150Z,13.00
2023-04-20T11:09:38.681Z,13.52
2023-04-20T11:12:15.039Z,12.52
2023-04-20T11:14:58.993Z,10.93
2023-04-20T11:17:34.788Z,12.07
2023-04-20T11:20:09.228Z,10.40
2023-04-20T11:22:36.153Z,11.03
2023-04-20T11:25:08.162Z,9.70
2023-04-20T11:27:36.678Z,7.55
2023-04-20T11:30:10.150Z,11.20
2023-04-20T11:32:38.496Z,9.68
2023-04-20T11:35:09.613Z,11.90
2023-04-20T11:37:53.956Z,9.05
2023-04-20T11:40:21.490Z,11.30
2023-04-20T11:42:48.777Z,7.25
2023-04-20T11:45:16.067Z,13.88
2023-04-20T11:47:42.986Z,8.27
2023-04-20T11:50:13.210Z,7.60
2023-04-20T11:52:40.181Z,10.75
2023-04-20T11:55:07.721Z,7.35
2023-04-20T11:57:34.882Z,9.20
2023-04-20T12:00:01.846Z,8.52
2023-04-20T12:02:28.846Z,8.25
2023-04-20T12:04:56.060Z,8.38
2023-04-20T12:07:23.564Z,12.38
2023-04-20T12:09:50.504Z,9.75
2023-04-20T12:12:17.440Z,10.25
2023-04-20T12:14:44.328Z,8.80
2023-04-20T12:17:11.683Z,8.98
2023-04-20T12:19:38.663Z,6.72
2023-04-20T12:22:05.582Z,9.20
2023-04-20T12:24:32.693Z,6.97
2023-04-20T12:26:59.787Z,5.82
2023-04-20T12:29:26.707Z,8.80
2023-04-20T12:31:53.764Z,6.72
2023-04-20T12:34:21.057Z,5.93
2023-04-20T12:36:48.196Z,9.05
2023-04-20T12:39:15.740Z,7.50
2023-04-20T12:41:42.674Z,8.20
2023-04-20T12:44:11.549Z,11.02
2023-04-20T12:46:38.546Z,5.50
2023-04-20T12:49:05.741Z,7.28
2023-04-20T12:51:32.657Z,7.00
2023-04-20T12:53:59.649Z,7.28
2023-04-20T12:56:26.834Z,6.35
2023-04-20T12:58:54.473Z,5.43
2023-04-20T13:01:21.594Z,4.68
2023-04-20T13:03:52.294Z,7.93
2023-04-20T13:06:19.605Z,6.75
2023-04-20T13:08:46.781Z,5.13
2023-04-20T13:11:15.728Z,6.53
2023-04-20T13:13:42.793Z,5.45
2023-04-20T13:16:10.368Z,6.82
2023-04-20T13:18:38.273Z,7.75
2023-04-20T13:21:05.696Z,8.95
2023-04-20T13:23:32.767Z,4.47
2023-04-20T13:26:01.858Z,9.48
2023-04-20T13:28:28.841Z,4.93
2023-04-20T13:30:57.707Z,4.57
2023-04-20T13:33:24.997Z,5.55
2023-04-20T13:35:52.259Z,8.43
2023-04-20T13:38:19.173Z,3.65
2023-04-20T13:40:47.553Z,7.55
2023-04-20T13:43:14.778Z,8.27
2023-04-20T13:45:41.815Z,3.67
2023-04-20T13:48:09.378Z,3.45
2023-04-20T13:50:36.373Z,4.75
2023-04-20T13:53:03.775Z,6.53
2023-04-20T13:55:32.123Z,4.70
2023-04-20T13:57:59.127Z,2.80
2023-04-20T14:00:26.403Z,3.80
2023-04-20T14:02:53.428Z,8.32
2023-04-20T14:05:20.785Z,6.47
2023-04-20T14:07:47.680Z,4.20
2023-04-20T14:10:14.599Z,4.10
2023-04-20T14:12:41.648Z,2.33
2023-04-20T14:15:09.307Z,4.32
2023-04-20T14:17:36.225Z,6.28
2023-04-20T14:20:04.463Z,4.95
2023-04-20T14:22:36.217Z,5.80
2023-04-20T14:25:07.346Z,2.72
2023-04-20T14:27:34.377Z,6.00
2023-04-20T14:30:01.543Z,8.13
2023-04-20T14:32:30.912Z,5.60
2023-04-20T14:34:57.959Z,5.97
2023-04-20T14:37:27.316Z,5.88
2023-04-20T14:39:54.406Z,5.90
2023-04-20T14:42:21.992Z,3.97
2023-04-20T14:44:49.337Z,7.63
2023-04-20T14:47:16.653Z,10.23
2023-04-20T14:49:45.004Z,6.70
2023-04-20T14:52:11.987Z,4.18
2023-04-20T14:54:39.181Z,4.80
2023-04-20T14:57:06.221Z,5.22
2023-04-20T14:59:33.924Z,5.70
2023-04-20T15:02:03.382Z,7.45
2023-04-20T15:04:31.036Z,8.60
2023-04-20T15:06:58.598Z,5.75
2023-04-20T15:09:26.077Z,5.85
2023-04-20T15:11:53.318Z,4.07
2023-04-20T15:14:20.865Z,5.32
2023-04-20T15:16:47.942Z,3.47
2023-04-20T15:19:14.825Z,4.85
2023-04-20T15:21:42.799Z,8.40
2023-04-20T15:24:11.543Z,4.90
2023-04-20T15:26:38.400Z,4.07
2023-04-20T15:29:05.612Z,4.80
2023-04-20T15:31:32.623Z,3.28
2023-04-20T15:34:00.583Z,4.22
2023-04-20T15:36:27.710Z,7.90
2023-04-20T15:38:56.177Z,3.95
2023-04-20T15:41:24.566Z,3.70
2023-04-20T15:43:51.600Z,7.90
2023-04-20T15:46:19.031Z,6.50
2023-04-20T15:48:45.944Z,5.20
2023-04-20T15:51:13.876Z,5.05
2023-04-20T15:53:40.760Z,4.47
2023-04-20T15:56:07.966Z,4.78
2023-04-20T15:58:35.208Z,4.50
2023-04-20T16:01:02.172Z,6.80
2023-04-20T16:03:29.217Z,6.93
2023-04-20T16:05:56.196Z,4.68
2023-04-20T16:08:23.274Z,4.63
2023-04-20T16:10:50.217Z,7.32
2023-04-20T16:13:17.130Z,7.40
2023-04-20T16:15:44.126Z,6.70
2023-04-20T16:18:11.238Z,12.00
2023-04-20T16:20:39.457Z,8.15
2023-04-20T16:23:08.274Z,3.83
2023-04-20T16:25:35.479Z,5.45
2023-04-20T16:28:02.976Z,8.07
2023-04-20T16:30:30.384Z,8.40
2023-04-20T16:32:59.943Z,4.00
2023-04-20T16:35:27.190Z,8.70
2023-04-20T16:37:54.594Z,9.15
2023-04-20T16:40:21.553Z,7.32
2023-04-20T16:42:48.628Z,10.13
2023-04-20T16:45:16.425Z,8.02
2023-04-20T16:47:43.431Z,11.65
2023-04-20T16:50:12.749Z,6.05
2023-04-20T16:52:39.723Z,8.30
2023-04-20T16:55:07.501Z,9.57
2023-04-20T16:57:34.408Z,6.43
2023-04-20T17:00:01.328Z,6.35
2023-04-20T17:02:33.133Z,8.77
2023-04-20T17:05:00.780Z,10.15
2023-04-20T17:07:28.749Z,7.88
2023-04-20T17:09:56.023Z,5.25
2023-04-20T17:12:23.330Z,13.73
2023-04-20T17:14:50.282Z,11.48
2023-04-20T17:17:17.159Z,16.27
2023-04-20T17:19:44.059Z,13.50
2023-04-20T17:22:11.325Z,9.05
2023-04-20T17:24:38.183Z,12.18
2023-04-20T17:27:05.125Z,8.90
2023-04-20T17:29:36.265Z,12.15
2023-04-20T17:32:03.495Z,9.05
2023-04-20T17:34:30.550Z,6.60
2023-04-20T17:36:57.405Z,9.15
2023-04-20T17:39:24.346Z,10.48
2023-04-20T17:41:51.220Z,10.73
2023-04-20T17:44:18.510Z,7.32
2023-04-20T17:46:45.641Z,10.98
2023-04-20T17:49:12.520Z,12.80
2023-04-20T17:51:39.720Z,10.60
2023-04-20T17:54:07.949Z,13.15
2023-04-20T17:56:34.952Z,7.50
2023-04-20T17:59:01.845Z,15.45
2023-04-20T18:01:28.857Z,10.75
2023-04-20T18:03:56.056Z,7.35
2023-04-20T18:06:23.135Z,9.05
2023-04-20T18:08:50.447Z,7.97
2023-04-20T18:11:17.348Z,14.68
2023-04-20T18:13:44.859Z,8.77
2023-04-20T18:16:11.971Z,5.95
2023-04-20T18:18:38.954Z,8.80
2023-04-20T18:21:05.947Z,8.18
2023-04-20T18:23:33.510Z,8.35
2023-04-20T18:26:00.446Z,10.13
2023-04-20T18:28:27.710Z,10.25
2023-04-20T18:30:57.687Z,7.53
2023-04-20T18:33:26.168Z,6.13
2023-04-20T18:35:53.077Z,13.10
2023-04-20T18:38:20.114Z,9.13
2023-04-20T18:40:47.262Z,9.80
2023-04-20T18:43:14.325Z,10.35
2023-04-20T18:45:41.470Z,8.80
2023-04-20T18:48:08.417Z,9.48
2023-04-20T18:50:35.781Z,10.23
2023-04-20T18:53:05.218Z,7.00
2023-04-20T18:55:32.490Z,12.70
2023-04-20T18:58:00.166Z,10.55
2023-04-20T19:00:27.505Z,11.07
2023-04-20T19:02:54.599Z,7.47
2023-04-20T19:05:22.043Z,7.93
2023-04-20T19:07:49.073Z,9.40
2023-04-20T19:10:16.112Z,7.63
2023-04-20T19:12:43.305Z,10.35
2023-04-20T19:15:10.932Z,9.68
2023-04-20T19:17:38.260Z,11.65
2023-04-20T19:20:06.370Z,11.50
2023-04-20T19:22:33.408Z,16.88
2023-04-20T19:25:01.076Z,12.10
2023-04-20T19:27:28.007Z,17.38
2023-04-20T19:29:55.117Z,13.95
2023-04-20T19:32:22.084Z,13.73
2023-04-20T19:34:49.012Z,25.42
2023-04-20T19:37:16.264Z,13.75
2023-04-20T19:39:43.211Z,12.10
2023-04-20T19:42:10.123Z,13.45
2023-04-20T19:44:37.002Z,7.78
2023-04-20T19:47:04.414Z,12.63
2023-04-20T19:49:31.342Z,12.10
2023-04-20T19:51:58.400Z,14.57
2023-04-20T19:54:25.421Z,13.57
2023-04-20T19:56:52.845Z,11.02
2023-04-20T19:59:20.122Z,12.13
2023-04-20T20:01:48.877Z,8.70
2023-04-20T20:04:17.654Z,13.40
2023-04-20T20:06:48.724Z,18.33
2023-04-20T20:09:15.843Z,13.30
2023-04-20T20:11:48.776Z,15.02
2023-04-20T20:14:19.479Z,13.68
2023-04-20T20:16:46.443Z,17.70
2023-04-20T20:19:14.323Z,17.33
2023-04-20T20:21:41.276Z,16.75
2023-04-20T20:24:08.296Z,19.90
2023-04-20T20:26:35.408Z,24.00
2023-04-20T20:29:02.605Z,20.90
2023-04-20T20:31:29.487Z,22.85
2023-04-20T20:33:56.746Z,18.20
2023-04-20T20:36:24.189Z,22.58
2023-04-20T20:38:51.681Z,22.38
2023-04-20T20:41:22.312Z,24.48
2023-04-20T20:43:50.644Z,20.52
2023-04-20T20:46:17.671Z,22.13
2023-04-20T20:48:44.980Z,18.63
2023-04-20T20:51:12.343Z,24.10
2023-04-20T20:53:39.334Z,26.48
2023-04-20T20:56:06.812Z,31.25
2023-04-20T20:58:33.726Z,26.02
2023-04-20T21:01:00.839Z,32.08
2023-04-20T21:03:27.925Z,21.63
2023-04-20T21:05:55.161Z,30.35
2023-04-20T21:08:22.208Z,22.52
2023-04-20T21:10:49.235Z,25.92
2023-04-20T21:13:16.318Z,31.25
2023-04-20T21:15:43.194Z,24.13
2023-04-20T21:18:10.339Z,28.52
2023-04-20T21:20:37.328Z,23.80
2023-04-20T21:23:04.300Z,26.35
2023-04-20T21:25:31.580Z,27.20
2023-04-20T21:27:58.527Z,19.67
2023-04-20T21:30:25.573Z,32.30
2023-04-20T21:32:52.823Z,31.73
2023-04-20T21:35:19.859Z,28.70
2023-04-20T21:37:46.707Z,31.60
2023-04-20T21:40:13.793Z,25.10
2023-04-20T21:42:40.692Z,25.58
2023-04-20T21:45:08.368Z,26.98
2023-04-20T21:47:35.310Z,26.00
2023-04-20T21:50:02.290Z,25.63
2023-04-20T21:52:29.565Z,26.73
2023-04-20T21:54:56.550Z,22.70
2023-04-20T21:57:23.444Z,26.25
2023-04-20T21:59:50.486Z,27.13
2023-04-20T22:02:17.668Z,23.33
2023-04-20T22:04:45.920Z,24.52
2023-04-20T22:07:13.021Z,21.77
2023-04-20T22:09:40.089Z,28.67
2023-04-20T22:12:09.278Z,21.30
2023-04-20T22:14:36.252Z,23.42
2023-04-20T22:17:03.174Z,20.98
2023-04-20T22:19:30.036Z,19.70
2023-04-20T22:21:57.082Z,23.13
2023-04-20T22:24:24.403Z,26.00
2023-04-20T22:26:51.257Z,16.90
2023-04-20T22:29:21.703Z,19.95
2023-04-20T22:31:49.428Z,19.58
2023-04-20T22:34:16.364Z,19.85
2023-04-20T22:36:43.264Z,17.08
2023-04-20T22:39:10.413Z,25.05
2023-04-20T22:41:37.287Z,21.90
2023-04-20T22:44:04.780Z,26.48
2023-04-20T22:46:31.708Z,13.70
2023-04-20T22:48:58.670Z,20.73
2023-04-20T22:51:26.190Z,21.67
2023-04-20T22:53:53.116Z,18.92
2023-04-20T22:56:20.184Z,21.15
2023-04-20T22:58:47.042Z,21.00
2023-04-20T23:01:13.969Z,16.67
2023-04-20T23:03:41.469Z,17.58
2023-04-20T23:06:08.440Z,15.85
2023-04-20T23:08:35.612Z,21.25
2023-04-20T23:11:02.555Z,23.70
2023-04-20T23:13:29.469Z,15.52
2023-04-20T23:15:56.443Z,18.58
2023-04-20T23:18:23.352Z,21.60
2023-04-20T23:20:50.233Z,21.13
2023-04-20T23:23:17.485Z,16.88
2023-04-20T23:25:44.378Z,23.77
2023-04-20T23:28:11.373Z,14.48
2023-04-20T23:30:38.257Z,20.33
2023-04-20T23:33:05.271Z,21.50
2023-04-20T23:35:32.618Z,23.83
2023-04-20T23:37:59.607Z,21.77
2023-04-20T23:40:26.727Z,22.85
2023-04-20T23:42:55.319Z,20.17
2023-04-20T23:45:22.916Z,19.30
2023-04-20T23:47:50.097Z,21.45
2023-04-20T23:50:17.046Z,21.77
2023-04-20T23:52:44.118Z,25.38
2023-04-20T23:55:11.117Z,26.77
2023-04-20T23:57:38.073Z,16.63
